sensor_id;sensor_type;location;lat;lon;timestamp;P1;durP1;ratioP1;P2;durP2;ratioP2
7501;SDS011;3792;47.740;7.606;2024-02-23T00:02:11;0.77;;;0.30;;
7501;SDS011;3792;47.740;7.606;2024-02-23T00:04:38;0.43;;;0.30;;
7501;SDS011;3792;47.740;7.606;2024-02-23T00:07:05;0.57;;;0.57;;
7501;SDS011;3792;47.740;7.606;2024-02-23T00:09:32;2.33;;;0.40;;
7501;SDS011;3792;47.740;7.606;2024-02-23T00:11:59;1.43;;;0.57;;
7501;SDS011;3792;47.740;7.606;2024-02-23T00:14:26;0.50;;;0.40;;
7501;SDS011;3792;47.740;7.606;2024-02-23T00:16:54;0.47;;;0.40;;
7501;SDS011;3792;47.740;7.606;2024-02-23T00:19:22;2.27;;;0.37;;
7501;SDS011;3792;47.740;7.606;2024-02-23T00:21:50;0.97;;;0.40;;
7501;SDS011;3792;47.740;7.606;2024-02-23T00:24:18;4.40;;;0.60;;
7501;SDS011;3792;47.740;7.606;2024-02-23T00:26:46;2.57;;;0.60;;
7501;SDS011;3792;47.740;7.606;2024-02-23T00:29:14;0.60;;;0.40;;
7501;SDS011;3792;47.740;7.606;2024-02-23T00:31:41;1.73;;;0.43;;
7501;SDS011;3792;47.740;7.606;2024-02-23T00:34:11;0.47;;;0.47;;
7501;SDS011;3792;47.740;7.606;2024-02-23T00:36:39;0.77;;;0.53;;
7501;SDS011;3792;47.740;7.606;2024-02-23T00:39:07;1.60;;;0.40;;
7501;SDS011;3792;47.740;7.606;2024-02-23T00:41:34;1.63;;;0.50;;
7501;SDS011;3792;47.740;7.606;2024-02-23T00:44:02;1.13;;;0.50;;
7501;SDS011;3792;47.740;7.606;2024-02-23T00:46:29;0.40;;;0.40;;
7501;SDS011;3792;47.740;7.606;2024-02-23T00:48:56;2.07;;;0.40;;
7501;SDS011;3792;47.740;7.606;2024-02-23T00:51:24;1.17;;;0.40;;
7501;SDS011;3792;47.740;7.606;2024-02-23T00:53:52;0.43;;;0.40;;
7501;SDS011;3792;47.740;7.606;2024-02-23T00:56:19;0.47;;;0.47;;
7501;SDS011;3792;47.740;7.606;2024-02-23T00:58:46;0.70;;;0.70;;
7501;SDS011;3792;47.740;7.606;2024-02-23T01:01:13;1.70;;;0.60;;
7501;SDS011;3792;47.740;7.606;2024-02-23T01:03:40;1.90;;;0.67;;
7501;SDS011;3792;47.740;7.606;2024-02-23T01:06:07;1.30;;;0.40;;
7501;SDS011;3792;47.740;7.606;2024-02-23T01:08:35;1.63;;;0.50;;
7501;SDS011;3792;47.740;7.606;2024-02-23T01:11:02;2.43;;;0.83;;
7501;SDS011;3792;47.740;7.606;2024-02-23T01:13:29;1.47;;;0.57;;
7501;SDS011;3792;47.740;7.606;2024-02-23T01:15:56;1.40;;;0.50;;
7501;SDS011;3792;47.740;7.606;2024-02-23T01:18:23;2.93;;;0.40;;
7501;SDS011;3792;47.740;7.606;2024-02-23T01:20:51;0.70;;;0.40;;
7501;SDS011;3792;47.740;7.606;2024-02-23T01:23:18;1.17;;;0.60;;
7501;SDS011;3792;47.740;7.606;2024-02-23T01:25:46;0.50;;;0.40;;
7501;SDS011;3792;47.740;7.606;2024-02-23T01:28:13;1.97;;;0.60;;
7501;SDS011;3792;47.740;7.606;2024-02-23T01:30:40;0.73;;;0.40;;
7501;SDS011;3792;47.740;7.606;2024-02-23T01:33:07;2.63;;;0.60;;
7501;SDS011;3792;47.740;7.606;2024-02-23T01:35:34;2.33;;;0.53;;
7501;SDS011;3792;47.740;7.606;2024-02-23T01:38:01;1.67;;;0.60;;
7501;SDS011;3792;47.740;7.606;2024-02-23T01:40:29;2.33;;;0.57;;
7501;SDS011;3792;47.740;7.606;2024-02-23T01:43:03;2.07;;;0.63;;
7501;SDS011;3792;47.740;7.606;2024-02-23T01:45:31;2.67;;;0.50;;
7501;SDS011;3792;47.740;7.606;2024-02-23T01:47:58;1.07;;;0.60;;
7501;SDS011;3792;47.740;7.606;2024-02-23T01:50:27;1.93;;;0.50;;
7501;SDS011;3792;47.740;7.606;2024-02-23T01:52:54;2.07;;;0.50;;
7501;SDS011;3792;47.740;7.606;2024-02-23T01:55:22;0.80;;;0.53;;
7501;SDS011;3792;47.740;7.606;2024-02-23T01:57:50;1.07;;;0.70;;
7501;SDS011;3792;47.740;7.606;2024-02-23T02:00:18;2.43;;;0.60;;
7501;SDS011;3792;47.740;7.606;2024-02-23T02:02:47;1.87;;;0.37;;
7501;SDS011;3792;47.740;7.606;2024-02-23T02:05:14;0.50;;;0.50;;
7501;SDS011;3792;47.740;7.606;2024-02-23T02:07:42;1.90;;;0.47;;
7501;SDS011;3792;47.740;7.606;2024-02-23T02:10:09;1.73;;;0.50;;
7501;SDS011;3792;47.740;7.606;2024-02-23T02:12:36;1.30;;;0.40;;
7501;SDS011;3792;47.740;7.606;2024-02-23T02:15:04;2.20;;;0.50;;
7501;SDS011;3792;47.740;7.606;2024-02-23T02:17:33;1.37;;;0.57;;
7501;SDS011;3792;47.740;7.606;2024-02-23T02:20:01;1.33;;;0.60;;
7501;SDS011;3792;47.740;7.606;2024-02-23T02:22:31;0.93;;;0.43;;
7501;SDS011;3792;47.740;7.606;2024-02-23T02:24:59;1.00;;;0.50;;
7501;SDS011;3792;47.740;7.606;2024-02-23T02:27:26;0.37;;;0.37;;
7501;SDS011;3792;47.740;7.606;2024-02-23T02:29:53;1.03;;;0.50;;
7501;SDS011;3792;47.740;7.606;2024-02-23T02:32:20;2.63;;;0.70;;
7501;SDS011;3792;47.740;7.606;2024-02-23T02:34:49;2.60;;;0.70;;
7501;SDS011;3792;47.740;7.606;2024-02-23T02:37:16;1.53;;;0.50;;
7501;SDS011;3792;47.740;7.606;2024-02-23T02:39:43;0.40;;;0.40;;
7501;SDS011;3792;47.740;7.606;2024-02-23T02:42:10;3.03;;;0.60;;
7501;SDS011;3792;47.740;7.606;2024-02-23T02:44:37;1.23;;;0.50;;
7501;SDS011;3792;47.740;7.606;2024-02-23T02:47:04;0.93;;;0.83;;
7501;SDS011;3792;47.740;7.606;2024-02-23T02:49:31;3.00;;;0.60;;
7501;SDS011;3792;47.740;7.606;2024-02-23T02:52:00;1.73;;;0.60;;
7501;SDS011;3792;47.740;7.606;2024-02-23T02:54:27;1.77;;;0.50;;
7501;SDS011;3792;47.740;7.606;2024-02-23T02:56:54;1.33;;;0.60;;
7501;SDS011;3792;47.740;7.606;2024-02-23T02:59:21;1.63;;;0.67;;
7501;SDS011;3792;47.740;7.606;2024-02-23T03:01:49;1.47;;;0.60;;
7501;SDS011;3792;47.740;7.606;2024-02-23T03:04:16;1.50;;;0.80;;
7501;SDS011;3792;47.740;7.606;2024-02-23T03:06:43;1.23;;;0.53;;
7501;SDS011;3792;47.740;7.606;2024-02-23T03:09:11;1.13;;;0.70;;
7501;SDS011;3792;47.740;7.606;2024-02-23T03:11:39;2.43;;;0.70;;
7501;SDS011;3792;47.740;7.606;2024-02-23T03:14:06;1.00;;;0.73;;
7501;SDS011;3792;47.740;7.606;2024-02-23T03:16:33;2.57;;;0.77;;
7501;SDS011;3792;47.740;7.606;2024-02-23T03:19:01;1.17;;;0.53;;
7501;SDS011;3792;47.740;7.606;2024-02-23T03:21:28;2.70;;;0.80;;
7501;SDS011;3792;47.740;7.606;2024-02-23T03:23:55;1.23;;;0.80;;
7501;SDS011;3792;47.740;7.606;2024-02-23T03:26:23;0.80;;;0.67;;
7501;SDS011;3792;47.740;7.606;2024-02-23T03:28:50;3.47;;;1.00;;
7501;SDS011;3792;47.740;7.606;2024-02-23T03:31:17;2.47;;;0.60;;
7501;SDS011;3792;47.740;7.606;2024-02-23T03:33:44;5.70;;;0.73;;
7501;SDS011;3792;47.740;7.606;2024-02-23T03:36:11;1.83;;;0.80;;
7501;SDS011;3792;47.740;7.606;2024-02-23T03:38:38;3.00;;;1.00;;
7501;SDS011;3792;47.740;7.606;2024-02-23T03:41:05;1.67;;;0.87;;
7501;SDS011;3792;47.740;7.606;2024-02-23T03:43:34;2.77;;;0.83;;
7501;SDS011;3792;47.740;7.606;2024-02-23T03:46:00;4.23;;;1.00;;
7501;SDS011;3792;47.740;7.606;2024-02-23T03:48:27;2.07;;;0.90;;
7501;SDS011;3792;47.740;7.606;2024-02-23T03:50:54;2.27;;;0.80;;
7501;SDS011;3792;47.740;7.606;2024-02-23T03:53:21;3.23;;;0.90;;
7501;SDS011;3792;47.740;7.606;2024-02-23T03:55:48;3.17;;;0.80;;
7501;SDS011;3792;47.740;7.606;2024-02-23T03:58:15;3.80;;;1.00;;
7501;SDS011;3792;47.740;7.606;2024-02-23T04:00:44;4.53;;;1.17;;
7501;SDS011;3792;47.740;7.606;2024-02-23T04:03:11;5.57;;;1.27;;
7501;SDS011;3792;47.740;7.606;2024-02-23T04:05:38;3.43;;;1.27;;
7501;SDS011;3792;47.740;7.606;2024-02-23T04:08:05;2.83;;;0.80;;
7501;SDS011;3792;47.740;7.606;2024-02-23T04:10:32;2.93;;;0.93;;
7501;SDS011;3792;47.740;7.606;2024-02-23T04:12:59;5.47;;;1.00;;
7501;SDS011;3792;47.740;7.606;2024-02-23T04:15:27;3.93;;;1.10;;
7501;SDS011;3792;47.740;7.606;2024-02-23T04:17:55;3.60;;;1.00;;
7501;SDS011;3792;47.740;7.606;2024-02-23T04:20:22;2.83;;;0.90;;
7501;SDS011;3792;47.740;7.606;2024-02-23T04:22:49;5.87;;;1.20;;
7501;SDS011;3792;47.740;7.606;2024-02-23T04:25:16;2.23;;;0.77;;
7501;SDS011;3792;47.740;7.606;2024-02-23T04:27:43;1.30;;;0.77;;
7501;SDS011;3792;47.740;7.606;2024-02-23T04:30:10;4.83;;;0.90;;
7501;SDS011;3792;47.740;7.606;2024-02-23T04:32:38;4.20;;;0.73;;
7501;SDS011;3792;47.740;7.606;2024-02-23T04:35:07;1.07;;;0.70;;
7501;SDS011;3792;47.740;7.606;2024-02-23T04:37:34;3.60;;;0.87;;
7501;SDS011;3792;47.740;7.606;2024-02-23T04:40:01;3.13;;;1.00;;
7501;SDS011;3792;47.740;7.606;2024-02-23T04:42:30;1.93;;;1.00;;
7501;SDS011;3792;47.740;7.606;2024-02-23T04:44:57;7.73;;;1.30;;
7501;SDS011;3792;47.740;7.606;2024-02-23T04:47:24;3.97;;;0.90;;
7501;SDS011;3792;47.740;7.606;2024-02-23T04:49:51;3.37;;;1.00;;
7501;SDS011;3792;47.740;7.606;2024-02-23T04:52:20;4.47;;;1.00;;
7501;SDS011;3792;47.740;7.606;2024-02-23T04:54:47;4.67;;;1.33;;
7501;SDS011;3792;47.740;7.606;2024-02-23T04:57:14;5.03;;;0.83;;
7501;SDS011;3792;47.740;7.606;2024-02-23T04:59:41;3.63;;;0.93;;
7501;SDS011;3792;47.740;7.606;2024-02-23T05:02:08;2.80;;;0.87;;
7501;SDS011;3792;47.740;7.606;2024-02-23T05:04:35;4.20;;;1.17;;
7501;SDS011;3792;47.740;7.606;2024-02-23T05:07:02;3.20;;;1.03;;
7501;SDS011;3792;47.740;7.606;2024-02-23T05:09:30;2.57;;;0.90;;
7501;SDS011;3792;47.740;7.606;2024-02-23T05:11:58;4.37;;;1.40;;
7501;SDS011;3792;47.740;7.606;2024-02-23T05:14:25;2.53;;;1.17;;
7501;SDS011;3792;47.740;7.606;2024-02-23T05:16:52;3.30;;;1.17;;
7501;SDS011;3792;47.740;7.606;2024-02-23T05:19:19;1.90;;;0.70;;
7501;SDS011;3792;47.740;7.606;2024-02-23T05:21:47;3.17;;;1.37;;
7501;SDS011;3792;47.740;7.606;2024-02-23T05:24:14;7.70;;;1.10;;
7501;SDS011;3792;47.740;7.606;2024-02-23T05:26:42;4.03;;;1.13;;
7501;SDS011;3792;47.740;7.606;2024-02-23T05:29:10;3.80;;;0.93;;
7501;SDS011;3792;47.740;7.606;2024-02-23T05:31:44;2.53;;;0.90;;
7501;SDS011;3792;47.740;7.606;2024-02-23T05:34:13;5.50;;;0.83;;
7501;SDS011;3792;47.740;7.606;2024-02-23T05:36:40;2.47;;;1.03;;
7501;SDS011;3792;47.740;7.606;2024-02-23T05:39:07;1.67;;;0.70;;
7501;SDS011;3792;47.740;7.606;2024-02-23T05:41:34;1.53;;;0.70;;
7501;SDS011;3792;47.740;7.606;2024-02-23T05:44:04;4.67;;;1.33;;
7501;SDS011;3792;47.740;7.606;2024-02-23T05:46:31;1.80;;;1.00;;
7501;SDS011;3792;47.740;7.606;2024-02-23T05:48:59;5.23;;;1.10;;
7501;SDS011;3792;47.740;7.606;2024-02-23T05:51:26;5.50;;;1.53;;
7501;SDS011;3792;47.740;7.606;2024-02-23T05:53:54;3.53;;;1.20;;
7501;SDS011;3792;47.740;7.606;2024-02-23T05:56:21;3.93;;;0.97;;
7501;SDS011;3792;47.740;7.606;2024-02-23T05:58:49;4.67;;;1.23;;
7501;SDS011;3792;47.740;7.606;2024-02-23T06:01:18;3.77;;;1.03;;
7501;SDS011;3792;47.740;7.606;2024-02-23T06:03:45;4.87;;;1.23;;
7501;SDS011;3792;47.740;7.606;2024-02-23T06:06:12;4.47;;;1.93;;
7501;SDS011;3792;47.740;7.606;2024-02-23T06:08:39;4.60;;;1.37;;
7501;SDS011;3792;47.740;7.606;2024-02-23T06:11:08;2.57;;;1.00;;
7501;SDS011;3792;47.740;7.606;2024-02-23T06:13:36;1.97;;;1.10;;
7501;SDS011;3792;47.740;7.606;2024-02-23T06:16:03;5.93;;;1.53;;
7501;SDS011;3792;47.740;7.606;2024-02-23T06:18:31;2.80;;;1.10;;
7501;SDS011;3792;47.740;7.606;2024-02-23T06:20:59;5.17;;;1.30;;
7501;SDS011;3792;47.740;7.606;2024-02-23T06:23:27;4.50;;;1.00;;
7501;SDS011;3792;47.740;7.606;2024-02-23T06:25:54;3.03;;;1.03;;
7501;SDS011;3792;47.740;7.606;2024-02-23T06:28:21;5.33;;;1.60;;
7501;SDS011;3792;47.740;7.606;2024-02-23T06:30:48;4.70;;;1.30;;
7501;SDS011;3792;47.740;7.606;2024-02-23T06:33:15;3.20;;;1.00;;
7501;SDS011;3792;47.740;7.606;2024-02-23T06:35:43;4.73;;;1.30;;
7501;SDS011;3792;47.740;7.606;2024-02-23T06:38:10;2.87;;;0.90;;
7501;SDS011;3792;47.740;7.606;2024-02-23T06:40:37;5.07;;;1.00;;
7501;SDS011;3792;47.740;7.606;2024-02-23T06:43:04;3.10;;;1.20;;
7501;SDS011;3792;47.740;7.606;2024-02-23T06:45:31;4.73;;;1.60;;
7501;SDS011;3792;47.740;7.606;2024-02-23T06:47:58;3.30;;;0.93;;
7501;SDS011;3792;47.740;7.606;2024-02-23T06:50:25;6.13;;;1.10;;
7501;SDS011;3792;47.740;7.606;2024-02-23T06:52:54;5.97;;;1.33;;
7501;SDS011;3792;47.740;7.606;2024-02-23T06:55:21;3.93;;;1.30;;
7501;SDS011;3792;47.740;7.606;2024-02-23T06:57:48;3.90;;;1.17;;
7501;SDS011;3792;47.740;7.606;2024-02-23T07:00:15;1.70;;;1.00;;
7501;SDS011;3792;47.740;7.606;2024-02-23T07:02:42;2.90;;;1.13;;
7501;SDS011;3792;47.740;7.606;2024-02-23T07:05:09;2.63;;;1.23;;
7501;SDS011;3792;47.740;7.606;2024-02-23T07:07:36;6.23;;;2.10;;
7501;SDS011;3792;47.740;7.606;2024-02-23T07:10:07;2.17;;;1.10;;
7501;SDS011;3792;47.740;7.606;2024-02-23T07:12:35;3.70;;;1.30;;
7501;SDS011;3792;47.740;7.606;2024-02-23T07:15:03;6.57;;;1.20;;
7501;SDS011;3792;47.740;7.606;2024-02-23T07:17:31;6.07;;;1.70;;
7501;SDS011;3792;47.740;7.606;2024-02-23T07:19:58;6.20;;;1.23;;
7501;SDS011;3792;47.740;7.606;2024-02-23T07:22:30;4.43;;;1.30;;
7501;SDS011;3792;47.740;7.606;2024-02-23T07:24:57;3.77;;;1.20;;
7501;SDS011;3792;47.740;7.606;2024-02-23T07:27:28;2.93;;;1.10;;
7501;SDS011;3792;47.740;7.606;2024-02-23T07:29:56;2.33;;;1.10;;
7501;SDS011;3792;47.740;7.606;2024-02-23T07:32:23;27.00;;;2.27;;
7501;SDS011;3792;47.740;7.606;2024-02-23T07:34:50;6.37;;;1.40;;
7501;SDS011;3792;47.740;7.606;2024-02-23T07:37:18;6.47;;;1.33;;
7501;SDS011;3792;47.740;7.606;2024-02-23T07:39:45;3.67;;;1.33;;
7501;SDS011;3792;47.740;7.606;2024-02-23T07:42:12;4.17;;;1.00;;
7501;SDS011;3792;47.740;7.606;2024-02-23T07:44:45;3.20;;;1.00;;
7501;SDS011;3792;47.740;7.606;2024-02-23T07:47:12;4.77;;;1.50;;
7501;SDS011;3792;47.740;7.606;2024-02-23T07:49:39;5.73;;;1.60;;
7501;SDS011;3792;47.740;7.606;2024-02-23T07:52:06;3.13;;;1.33;;
7501;SDS011;3792;47.740;7.606;2024-02-23T07:54:33;4.47;;;1.30;;
7501;SDS011;3792;47.740;7.606;2024-02-23T07:57:01;2.93;;;1.23;;
7501;SDS011;3792;47.740;7.606;2024-02-23T07:59:29;5.73;;;1.40;;
7501;SDS011;3792;47.740;7.606;2024-02-23T08:01:58;5.43;;;1.10;;
7501;SDS011;3792;47.740;7.606;2024-02-23T08:04:25;8.03;;;1.40;;
7501;SDS011;3792;47.740;7.606;2024-02-23T08:06:52;9.73;;;1.63;;
7501;SDS011;3792;47.740;7.606;2024-02-23T08:09:19;7.13;;;2.40;;
7501;SDS011;3792;47.740;7.606;2024-02-23T08:11:47;7.87;;;2.33;;
7501;SDS011;3792;47.740;7.606;2024-02-23T08:14:15;5.50;;;1.60;;
7501;SDS011;3792;47.740;7.606;2024-02-23T08:16:43;6.33;;;1.40;;
7501;SDS011;3792;47.740;7.606;2024-02-23T08:19:12;6.13;;;1.63;;
7501;SDS011;3792;47.740;7.606;2024-02-23T08:21:39;4.83;;;1.77;;
7501;SDS011;3792;47.740;7.606;2024-02-23T08:24:06;3.30;;;1.80;;
7501;SDS011;3792;47.740;7.606;2024-02-23T08:26:33;10.93;;;1.63;;
7501;SDS011;3792;47.740;7.606;2024-02-23T08:29:03;3.47;;;1.50;;
7501;SDS011;3792;47.740;7.606;2024-02-23T08:31:30;5.87;;;1.83;;
7501;SDS011;3792;47.740;7.606;2024-02-23T08:33:57;4.50;;;1.40;;
7501;SDS011;3792;47.740;7.606;2024-02-23T08:36:26;6.33;;;1.43;;
7501;SDS011;3792;47.740;7.606;2024-02-23T08:38:53;8.20;;;1.57;;
7501;SDS011;3792;47.740;7.606;2024-02-23T08:41:20;5.73;;;1.33;;
7501;SDS011;3792;47.740;7.606;2024-02-23T08:43:47;5.13;;;1.20;;
7501;SDS011;3792;47.740;7.606;2024-02-23T08:46:15;4.77;;;1.30;;
7501;SDS011;3792;47.740;7.606;2024-02-23T08:48:42;7.07;;;1.37;;
7501;SDS011;3792;47.740;7.606;2024-02-23T08:51:09;6.07;;;1.23;;
7501;SDS011;3792;47.740;7.606;2024-02-23T08:53:37;6.07;;;2.00;;
7501;SDS011;3792;47.740;7.606;2024-02-23T08:56:06;6.37;;;1.50;;
7501;SDS011;3792;47.740;7.606;2024-02-23T08:58:33;6.07;;;1.40;;
7501;SDS011;3792;47.740;7.606;2024-02-23T09:01:00;4.23;;;1.30;;
7501;SDS011;3792;47.740;7.606;2024-02-23T09:03:29;5.03;;;1.20;;
7501;SDS011;3792;47.740;7.606;2024-02-23T09:05:56;6.50;;;1.33;;
7501;SDS011;3792;47.740;7.606;2024-02-23T09:08:23;4.07;;;1.47;;
7501;SDS011;3792;47.740;7.606;2024-02-23T09:10:52;5.03;;;1.40;;
7501;SDS011;3792;47.740;7.606;2024-02-23T09:13:19;3.47;;;1.60;;
7501;SDS011;3792;47.740;7.606;2024-02-23T09:15:46;4.80;;;1.40;;
7501;SDS011;3792;47.740;7.606;2024-02-23T09:18:13;6.63;;;1.30;;
7501;SDS011;3792;47.740;7.606;2024-02-23T09:20:40;4.73;;;1.70;;
7501;SDS011;3792;47.740;7.606;2024-02-23T09:23:07;5.33;;;1.40;;
7501;SDS011;3792;47.740;7.606;2024-02-23T09:25:34;8.47;;;1.77;;
7501;SDS011;3792;47.740;7.606;2024-02-23T09:28:03;6.43;;;1.33;;
7501;SDS011;3792;47.740;7.606;2024-02-23T09:30:30;3.90;;;1.33;;
7501;SDS011;3792;47.740;7.606;2024-02-23T09:32:57;5.53;;;1.50;;
7501;SDS011;3792;47.740;7.606;2024-02-23T09:35:25;2.50;;;1.40;;
7501;SDS011;3792;47.740;7.606;2024-02-23T09:37:52;3.73;;;1.37;;
7501;SDS011;3792;47.740;7.606;2024-02-23T09:40:19;4.13;;;1.27;;
7501;SDS011;3792;47.740;7.606;2024-02-23T09:42:47;3.43;;;1.40;;
7501;SDS011;3792;47.740;7.606;2024-02-23T09:45:22;6.37;;;1.37;;
7501;SDS011;3792;47.740;7.606;2024-02-23T09:47:50;6.37;;;1.30;;
7501;SDS011;3792;47.740;7.606;2024-02-23T09:50:20;4.23;;;1.57;;
7501;SDS011;3792;47.740;7.606;2024-02-23T09:52:49;4.80;;;1.57;;
7501;SDS011;3792;47.740;7.606;2024-02-23T09:55:17;4.93;;;1.50;;
7501;SDS011;3792;47.740;7.606;2024-02-23T09:57:44;4.37;;;1.43;;
7501;SDS011;3792;47.740;7.606;2024-02-23T10:00:14;7.17;;;1.50;;
7501;SDS011;3792;47.740;7.606;2024-02-23T10:02:44;5.53;;;1.57;;
7501;SDS011;3792;47.740;7.606;2024-02-23T10:05:11;4.17;;;1.43;;
7501;SDS011;3792;47.740;7.606;2024-02-23T10:07:40;9.07;;;1.40;;
7501;SDS011;3792;47.740;7.606;2024-02-23T10:10:08;3.63;;;1.33;;
7501;SDS011;3792;47.740;7.606;2024-02-23T10:12:36;5.93;;;1.73;;
7501;SDS011;3792;47.740;7.606;2024-02-23T10:15:04;2.07;;;1.10;;
7501;SDS011;3792;47.740;7.606;2024-02-23T10:17:32;2.73;;;1.40;;
7501;SDS011;3792;47.740;7.606;2024-02-23T10:20:00;3.93;;;1.20;;
7501;SDS011;3792;47.740;7.606;2024-02-23T10:22:30;2.07;;;0.97;;
7501;SDS011;3792;47.740;7.606;2024-02-23T10:25:00;5.53;;;1.20;;
7501;SDS011;3792;47.740;7.606;2024-02-23T10:27:27;3.20;;;1.37;;
7501;SDS011;3792;47.740;7.606;2024-02-23T10:29:54;4.30;;;1.40;;
7501;SDS011;3792;47.740;7.606;2024-02-23T10:32:21;4.23;;;1.17;;
7501;SDS011;3792;47.740;7.606;2024-02-23T10:34:50;3.33;;;1.27;;
7501;SDS011;3792;47.740;7.606;2024-02-23T10:37:23;4.30;;;1.47;;
7501;SDS011;3792;47.740;7.606;2024-02-23T10:39:51;3.93;;;1.37;;
7501;SDS011;3792;47.740;7.606;2024-02-23T10:42:21;2.93;;;1.30;;
7501;SDS011;3792;47.740;7.606;2024-02-23T10:44:50;3.53;;;1.20;;
7501;SDS011;3792;47.740;7.606;2024-02-23T10:47:17;2.83;;;1.13;;
7501;SDS011;3792;47.740;7.606;2024-02-23T10:49:48;4.67;;;1.33;;
7501;SDS011;3792;47.740;7.606;2024-02-23T10:52:15;4.53;;;1.20;;
7501;SDS011;3792;47.740;7.606;2024-02-23T10:54:45;4.33;;;1.30;;
7501;SDS011;3792;47.740;7.606;2024-02-23T10:57:13;1.67;;;0.90;;
7501;SDS011;3792;47.740;7.606;2024-02-23T10:59:42;4.27;;;2.10;;
7501;SDS011;3792;47.740;7.606;2024-02-23T11:02:12;4.30;;;1.30;;
7501;SDS011;3792;47.740;7.606;2024-02-23T11:04:43;4.87;;;1.23;;
7501;SDS011;3792;47.740;7.606;2024-02-23T11:07:15;7.00;;;1.70;;
7501;SDS011;3792;47.740;7.606;2024-02-23T11:09:51;3.70;;;1.27;;
7501;SDS011;3792;47.740;7.606;2024-02-23T11:12:22;3.20;;;1.20;;
7501;SDS011;3792;47.740;7.606;2024-02-23T11:14:50;4.77;;;1.37;;
7501;SDS011;3792;47.740;7.606;2024-02-23T11:17:17;5.20;;;1.13;;
7501;SDS011;3792;47.740;7.606;2024-02-23T11:19:45;3.37;;;1.50;;
7501;SDS011;3792;47.740;7.606;2024-02-23T11:22:20;3.20;;;1.37;;
7501;SDS011;3792;47.740;7.606;2024-02-23T11:24:53;3.77;;;1.50;;
7501;SDS011;3792;47.740;7.606;2024-02-23T11:27:29;6.57;;;1.50;;
7501;SDS011;3792;47.740;7.606;2024-02-23T11:30:01;4.63;;;1.40;;
7501;SDS011;3792;47.740;7.606;2024-02-23T11:32:38;5.00;;;1.80;;
7501;SDS011;3792;47.740;7.606;2024-02-23T11:35:06;3.80;;;1.53;;
7501;SDS011;3792;47.740;7.606;2024-02-23T11:37:43;6.67;;;2.50;;
7501;SDS011;3792;47.740;7.606;2024-02-23T11:40:15;4.63;;;1.50;;
7501;SDS011;3792;47.740;7.606;2024-02-23T11:42:44;4.57;;;1.50;;
7501;SDS011;3792;47.740;7.606;2024-02-23T11:45:12;4.33;;;1.60;;
7501;SDS011;3792;47.740;7.606;2024-02-23T11:47:39;4.23;;;1.67;;
7501;SDS011;3792;47.740;7.606;2024-02-23T11:50:08;4.50;;;1.87;;
7501;SDS011;3792;47.740;7.606;2024-02-23T11:52:36;4.00;;;1.40;;
7501;SDS011;3792;47.740;7.606;2024-02-23T11:55:04;5.03;;;1.40;;
7501;SDS011;3792;47.740;7.606;2024-02-23T11:57:34;3.93;;;1.30;;
7501;SDS011;3792;47.740;7.606;2024-02-23T12:00:02;2.93;;;1.43;;
7501;SDS011;3792;47.740;7.606;2024-02-23T12:02:29;4.80;;;1.57;;
7501;SDS011;3792;47.740;7.606;2024-02-23T12:04:56;6.57;;;1.40;;
7501;SDS011;3792;47.740;7.606;2024-02-23T12:07:23;3.77;;;1.20;;
7501;SDS011;3792;47.740;7.606;2024-02-23T12:09:51;3.87;;;1.37;;
7501;SDS011;3792;47.740;7.606;2024-02-23T12:12:18;3.90;;;1.20;;
7501;SDS011;3792;47.740;7.606;2024-02-23T12:14:46;5.30;;;1.40;;
7501;SDS011;3792;47.740;7.606;2024-02-23T12:17:14;3.33;;;1.30;;
7501;SDS011;3792;47.740;7.606;2024-02-23T12:19:41;2.57;;;1.00;;
7501;SDS011;3792;47.740;7.606;2024-02-23T12:22:08;4.77;;;1.50;;
7501;SDS011;3792;47.740;7.606;2024-02-23T12:24:37;5.30;;;1.23;;
7501;SDS011;3792;47.740;7.606;2024-02-23T12:27:06;5.40;;;1.50;;
7501;SDS011;3792;47.740;7.606;2024-02-23T12:29:33;2.40;;;1.60;;
7501;SDS011;3792;47.740;7.606;2024-02-23T12:32:05;4.80;;;1.50;;
7501;SDS011;3792;47.740;7.606;2024-02-23T12:34:33;3.47;;;1.27;;
7501;SDS011;3792;47.740;7.606;2024-02-23T12:37:01;3.73;;;1.20;;
7501;SDS011;3792;47.740;7.606;2024-02-23T12:39:30;3.30;;;1.43;;
7501;SDS011;3792;47.740;7.606;2024-02-23T12:41:57;2.20;;;1.00;;
7501;SDS011;3792;47.740;7.606;2024-02-23T12:44:24;3.63;;;1.00;;
7501;SDS011;3792;47.740;7.606;2024-02-23T12:46:51;4.33;;;1.20;;
7501;SDS011;3792;47.740;7.606;2024-02-23T12:49:19;4.40;;;1.00;;
7501;SDS011;3792;47.740;7.606;2024-02-23T12:51:46;2.00;;;0.90;;
7501;SDS011;3792;47.740;7.606;2024-02-23T12:54:13;3.50;;;1.10;;
7501;SDS011;3792;47.740;7.606;2024-02-23T12:56:40;4.40;;;1.00;;
7501;SDS011;3792;47.740;7.606;2024-02-23T12:59:07;3.93;;;0.90;;
7501;SDS011;3792;47.740;7.606;2024-02-23T13:01:35;3.63;;;1.30;;
7501;SDS011;3792;47.740;7.606;2024-02-23T13:04:04;3.60;;;1.30;;
7501;SDS011;3792;47.740;7.606;2024-02-23T13:06:36;4.40;;;1.00;;
7501;SDS011;3792;47.740;7.606;2024-02-23T13:09:03;2.93;;;0.80;;
7501;SDS011;3792;47.740;7.606;2024-02-23T13:11:33;3.50;;;1.23;;
7501;SDS011;3792;47.740;7.606;2024-02-23T13:14:00;2.30;;;1.40;;
7501;SDS011;3792;47.740;7.606;2024-02-23T13:16:27;2.97;;;1.17;;
7501;SDS011;3792;47.740;7.606;2024-02-23T13:18:55;1.50;;;1.10;;
7501;SDS011;3792;47.740;7.606;2024-02-23T13:21:22;2.00;;;1.00;;
7501;SDS011;3792;47.740;7.606;2024-02-23T13:23:50;2.67;;;1.30;;
7501;SDS011;3792;47.740;7.606;2024-02-23T13:26:17;4.33;;;0.93;;
7501;SDS011;3792;47.740;7.606;2024-02-23T13:28:44;4.07;;;1.17;;
7501;SDS011;3792;47.740;7.606;2024-02-23T13:31:12;3.63;;;0.90;;
7501;SDS011;3792;47.740;7.606;2024-02-23T13:33:40;2.07;;;1.20;;
7501;SDS011;3792;47.740;7.606;2024-02-23T13:36:08;1.30;;;0.90;;
7501;SDS011;3792;47.740;7.606;2024-02-23T13:38:35;2.97;;;1.30;;
7501;SDS011;3792;47.740;7.606;2024-02-23T13:41:05;3.23;;;1.00;;
7501;SDS011;3792;47.740;7.606;2024-02-23T13:43:33;1.33;;;0.97;;
7501;SDS011;3792;47.740;7.606;2024-02-23T13:46:00;1.63;;;0.97;;
7501;SDS011;3792;47.740;7.606;2024-02-23T13:48:29;2.50;;;1.20;;
7501;SDS011;3792;47.740;7.606;2024-02-23T13:50:56;1.43;;;1.07;;
7501;SDS011;3792;47.740;7.606;2024-02-23T13:53:28;5.03;;;0.90;;
7501;SDS011;3792;47.740;7.606;2024-02-23T13:55:55;2.03;;;0.97;;
7501;SDS011;3792;47.740;7.606;2024-02-23T13:58:24;2.50;;;0.80;;
7501;SDS011;3792;47.740;7.606;2024-02-23T14:00:51;1.10;;;0.80;;
7501;SDS011;3792;47.740;7.606;2024-02-23T14:03:18;0.73;;;0.60;;
7501;SDS011;3792;47.740;7.606;2024-02-23T14:05:46;1.57;;;0.97;;
7501;SDS011;3792;47.740;7.606;2024-02-23T14:08:13;2.83;;;0.87;;
7501;SDS011;3792;47.740;7.606;2024-02-23T14:10:40;2.67;;;0.80;;
7501;SDS011;3792;47.740;7.606;2024-02-23T14:13:08;3.77;;;0.93;;
7501;SDS011;3792;47.740;7.606;2024-02-23T14:15:37;1.90;;;0.90;;
7501;SDS011;3792;47.740;7.606;2024-02-23T14:18:04;1.00;;;0.60;;
7501;SDS011;3792;47.740;7.606;2024-02-23T14:20:31;1.70;;;0.70;;
7501;SDS011;3792;47.740;7.606;2024-02-23T14:22:58;1.53;;;1.30;;
7501;SDS011;3792;47.740;7.606;2024-02-23T14:25:25;2.87;;;1.07;;
7501;SDS011;3792;47.740;7.606;2024-02-23T14:27:52;1.23;;;0.80;;
7501;SDS011;3792;47.740;7.606;2024-02-23T14:30:20;1.00;;;1.00;;
7501;SDS011;3792;47.740;7.606;2024-02-23T14:32:49;1.83;;;0.70;;
7501;SDS011;3792;47.740;7.606;2024-02-23T14:35:16;1.93;;;0.87;;
7501;SDS011;3792;47.740;7.606;2024-02-23T14:37:43;0.70;;;0.70;;
7501;SDS011;3792;47.740;7.606;2024-02-23T14:40:10;1.37;;;0.70;;
7501;SDS011;3792;47.740;7.606;2024-02-23T14:42:39;0.57;;;0.40;;
7501;SDS011;3792;47.740;7.606;2024-02-23T14:45:06;2.73;;;0.80;;
7501;SDS011;3792;47.740;7.606;2024-02-23T14:47:34;7.43;;;1.10;;
7501;SDS011;3792;47.740;7.606;2024-02-23T14:50:03;1.83;;;1.03;;
7501;SDS011;3792;47.740;7.606;2024-02-23T14:52:30;2.67;;;0.90;;
7501;SDS011;3792;47.740;7.606;2024-02-23T14:54:57;1.20;;;1.10;;
7501;SDS011;3792;47.740;7.606;2024-02-23T14:57:24;1.13;;;0.70;;
7501;SDS011;3792;47.740;7.606;2024-02-23T14:59:51;1.40;;;1.03;;
7501;SDS011;3792;47.740;7.606;2024-02-23T15:02:19;2.40;;;1.77;;
7501;SDS011;3792;47.740;7.606;2024-02-23T15:04:47;3.70;;;3.40;;
7501;SDS011;3792;47.740;7.606;2024-02-23T15:07:16;3.80;;;1.40;;
7501;SDS011;3792;47.740;7.606;2024-02-23T15:09:43;1.27;;;1.17;;
7501;SDS011;3792;47.740;7.606;2024-02-23T15:12:10;1.57;;;1.40;;
7501;SDS011;3792;47.740;7.606;2024-02-23T15:14:39;3.20;;;1.17;;
7501;SDS011;3792;47.740;7.606;2024-02-23T15:17:06;2.03;;;1.33;;
7501;SDS011;3792;47.740;7.606;2024-02-23T15:19:33;3.30;;;2.10;;